sensor_id;sensor_type;location;lat;lon;timestamp;pressure;altitude;pressure_sealevel;temperature;humidity
55066;BME280;40964;42.114;24.220;2023-03-15T00:01:05;96991.78;;;4.28;60.58
55066;BME280;40964;42.114;24.220;2023-03-15T00:03:31;96975.91;;;4.10;61.62
55066;BME280;40964;42.114;24.220;2023-03-15T00:06:02;96982.25;;;3.94;62.46
55066;BME280;40964;42.114;24.220;2023-03-15T00:08:27;96985.06;;;3.99;62.38
55066;BME280;40964;42.114;24.220;2023-03-15T00:10:53;96974.59;;;3.86;63.80
55066;BME280;40964;42.114;24.220;2023-03-15T00:13:18;96975.44;;;3.93;63.45
55066;BME280;40964;42.114;24.220;2023-03-15T00:15:50;96967.44;;;3.88;62.56
55066;BME280;40964;42.114;24.220;2023-03-15T00:18:17;96962.59;;;3.85;62.64
55066;BME280;40964;42.114;24.220;2023-03-15T00:20:43;96944.16;;;3.73;62.66
55066;BME280;40964;42.114;24.220;2023-03-15T00:23:09;96961.41;;;3.81;62.54
55066;BME280;40964;42.114;24.220;2023-03-15T00:25:35;96956.16;;;3.74;61.35
55066;BME280;40964;42.114;24.220;2023-03-15T00:28:01;96955.94;;;3.69;62.68
55066;BME280;40964;42.114;24.220;2023-03-15T00:30:27;96957.75;;;3.68;62.92
55066;BME280;40964;42.114;24.220;2023-03-15T00:32:52;96953.13;;;3.64;63.30
55066;BME280;40964;42.114;24.220;2023-03-15T00:35:19;96945.22;;;3.44;64.05
55066;BME280;40964;42.114;24.220;2023-03-15T00:37:44;96947.88;;;3.51;63.66
55066;BME280;40964;42.114;24.220;2023-03-15T00:40:11;96934.59;;;3.39;62.89
55066;BME280;40964;42.114;24.220;2023-03-15T00:42:37;96948.66;;;3.51;63.12
55066;BME280;40964;42.114;24.220;2023-03-15T00:45:04;96946.44;;;3.48;62.85
55066;BME280;40964;42.114;24.220;2023-03-15T00:47:30;96928.81;;;3.44;62.78
55066;BME280;40964;42.114;24.220;2023-03-15T00:49:55;96922.63;;;3.45;63.52
55066;BME280;40964;42.114;24.220;2023-03-15T00:52:21;96924.03;;;3.47;63.52
55066;BME280;40964;42.114;24.220;2023-03-15T00:54:51;96922.03;;;3.42;63.69
55066;BME280;40964;42.114;24.220;2023-03-15T00:57:17;96915.41;;;3.40;63.56
55066;BME280;40964;42.114;24.220;2023-03-15T00:59:42;96925.16;;;3.31;63.86
55066;BME280;40964;42.114;24.220;2023-03-15T01:02:09;96921.50;;;3.19;64.69
55066;BME280;40964;42.114;24.220;2023-03-15T01:04:35;96921.72;;;3.24;64.06
55066;BME280;40964;42.114;24.220;2023-03-15T01:07:00;96917.69;;;3.22;64.35
55066;BME280;40964;42.114;24.220;2023-03-15T01:09:26;96912.66;;;3.13;64.13
55066;BME280;40964;42.114;24.220;2023-03-15T01:11:51;96903.84;;;3.08;64.34
55066;BME280;40964;42.114;24.220;2023-03-15T01:14:17;96902.59;;;3.04;63.96
55066;BME280;40964;42.114;24.220;2023-03-15T01:16:44;96895.44;;;3.06;64.41
55066;BME280;40964;42.114;24.220;2023-03-15T01:19:13;96889.00;;;3.02;63.96
55066;BME280;40964;42.114;24.220;2023-03-15T01:21:39;96890.41;;;3.04;64.43
55066;BME280;40964;42.114;24.220;2023-03-15T01:24:04;96889.00;;;3.02;64.07
55066;BME280;40964;42.114;24.220;2023-03-15T01:26:30;96897.81;;;3.01;64.57
55066;BME280;40964;42.114;24.220;2023-03-15T01:28:55;96902.19;;;3.00;65.45
55066;BME280;40964;42.114;24.220;2023-03-15T01:31:22;96898.84;;;3.06;64.94
55066;BME280;40964;42.114;24.220;2023-03-15T01:33:48;96896.84;;;3.08;64.39
55066;BME280;40964;42.114;24.220;2023-03-15T01:36:14;96896.25;;;3.13;64.66
55066;BME280;40964;42.114;24.220;2023-03-15T01:38:39;96897.06;;;3.07;64.17
55066;BME280;40964;42.114;24.220;2023-03-15T01:41:05;96904.69;;;3.15;64.45
55066;BME280;40964;42.114;24.220;2023-03-15T01:43:31;96893.66;;;3.13;65.06
55066;BME280;40964;42.114;24.220;2023-03-15T01:51:29;96876.69;;;3.10;64.82
55066;BME280;40964;42.114;24.220;2023-03-15T01:56:58;96871.38;;;2.91;67.20
55066;BME280;40964;42.114;24.220;2023-03-15T01:59:38;96877.50;;;2.83;67.25
55066;BME280;40964;42.114;24.220;2023-03-15T02:02:05;96866.88;;;2.78;67.78
55066;BME280;40964;42.114;24.220;2023-03-15T02:04:37;96863.34;;;2.85;67.43
55066;BME280;40964;42.114;24.220;2023-03-15T02:07:07;96860.75;;;2.85;67.81
55066;BME280;40964;42.114;24.220;2023-03-15T02:10:02;96861.53;;;2.86;67.95
55066;BME280;40964;42.114;24.220;2023-03-15T02:12:27;96854.16;;;2.83;67.79
55066;BME280;40964;42.114;24.220;2023-03-15T02:14:53;96849.94;;;2.82;67.73
55066;BME280;40964;42.114;24.220;2023-03-15T02:17:32;96862.53;;;2.85;67.92
55066;BME280;40964;42.114;24.220;2023-03-15T02:25:42;96858.16;;;2.85;68.48
55066;BME280;40964;42.114;24.220;2023-03-15T02:28:12;96861.38;;;2.88;67.95
55066;BME280;40964;42.114;24.220;2023-03-15T02:30:39;96869.78;;;2.96;67.60
55066;BME280;40964;42.114;24.220;2023-03-15T02:33:09;96859.66;;;3.01;66.89
55066;BME280;40964;42.114;24.220;2023-03-15T02:35:37;96861.88;;;3.11;66.73
55066;BME280;40964;42.114;24.220;2023-03-15T02:38:03;96863.28;;;3.13;66.05
55066;BME280;40964;42.114;24.220;2023-03-15T02:40:29;96857.94;;;3.15;65.79
55066;BME280;40964;42.114;24.220;2023-03-15T02:42:59;96852.34;;;3.18;65.88
55066;BME280;40964;42.114;24.220;2023-03-15T02:45:27;96855.13;;;3.17;66.40
55066;BME280;40964;42.114;24.220;2023-03-15T02:47:56;96849.16;;;3.16;67.27
55066;BME280;40964;42.114;24.220;2023-03-15T02:50:22;96848.16;;;3.17;67.68
55066;BME280;40964;42.114;24.220;2023-03-15T02:52:47;96844.50;;;3.11;67.31
55066;BME280;40964;42.114;24.220;2023-03-15T02:55:13;96845.31;;;3.12;66.74
55066;BME280;40964;42.114;24.220;2023-03-15T02:57:38;96832.75;;;3.16;66.59
55066;BME280;40964;42.114;24.220;2023-03-15T03:00:04;96842.91;;;3.10;67.26
55066;BME280;40964;42.114;24.220;2023-03-15T03:02:38;96837.91;;;3.09;67.50
55066;BME280;40964;42.114;24.220;2023-03-15T03:05:04;96837.31;;;3.07;67.41
55066;BME280;40964;42.114;24.220;2023-03-15T03:07:29;96826.31;;;3.11;68.05
55066;BME280;40964;42.114;24.220;2023-03-15T03:09:55;96821.13;;;3.11;68.60
55066;BME280;40964;42.114;24.220;2023-03-15T03:12:21;96820.72;;;3.08;69.15
55066;BME280;40964;42.114;24.220;2023-03-15T03:14:46;96827.06;;;2.99;70.47
55066;BME280;40964;42.114;24.220;2023-03-15T03:17:12;96831.63;;;2.90;71.19
55066;BME280;40964;42.114;24.220;2023-03-15T03:19:37;96825.81;;;2.88;71.21
55066;BME280;40964;42.114;24.220;2023-03-15T03:22:03;96814.59;;;2.81;71.26
55066;BME280;40964;42.114;24.220;2023-03-15T03:24:28;96825.84;;;2.95;70.25
55066;BME280;40964;42.114;24.220;2023-03-15T03:26:54;96827.06;;;2.99;69.97
55066;BME280;40964;42.114;24.220;2023-03-15T03:29:23;96825.69;;;3.03;70.38
55066;BME280;40964;42.114;24.220;2023-03-15T03:31:48;96823.31;;;3.08;70.80
55066;BME280;40964;42.114;24.220;2023-03-15T03:34:14;96825.31;;;3.06;70.50
55066;BME280;40964;42.114;24.220;2023-03-15T03:36:40;96815.88;;;2.98;70.85
55066;BME280;40964;42.114;24.220;2023-03-15T03:39:06;96806.47;;;2.91;71.17
55066;BME280;40964;42.114;24.220;2023-03-15T03:41:32;96809.25;;;2.96;70.90
55066;BME280;40964;42.114;24.220;2023-03-15T03:43:59;96811.84;;;2.96;70.97
55066;BME280;40964;42.114;24.220;2023-03-15T03:46:24;96805.25;;;2.93;70.90
55066;BME280;40964;42.114;24.220;2023-03-15T03:48:49;96803.25;;;2.89;71.70
55066;BME280;40964;42.114;24.220;2023-03-15T03:51:15;96790.63;;;2.85;71.71
55066;BME280;40964;42.114;24.220;2023-03-15T03:53:40;96795.03;;;2.85;72.17
55066;BME280;40964;42.114;24.220;2023-03-15T03:56:07;96789.47;;;2.88;72.06
55066;BME280;40964;42.114;24.220;2023-03-15T03:58:32;96793.66;;;2.89;71.81
55066;BME280;40964;42.114;24.220;2023-03-15T04:00:59;96798.06;;;2.89;71.74
55066;BME280;40964;42.114;24.220;2023-03-15T04:03:24;96795.06;;;2.92;71.94
55066;BME280;40964;42.114;24.220;2023-03-15T04:05:57;96787.84;;;2.80;71.53
55066;BME280;40964;42.114;24.220;2023-03-15T04:08:30;96785.84;;;2.82;72.34
55066;BME280;40964;42.114;24.220;2023-03-15T04:10:56;96775.66;;;2.81;71.44
55066;BME280;40964;42.114;24.220;2023-03-15T04:13:23;96782.06;;;2.85;71.47
55066;BME280;40964;42.114;24.220;2023-03-15T04:15:49;96797.63;;;2.85;71.53
55066;BME280;40964;42.114;24.220;2023-03-15T04:18:15;96795.03;;;2.85;71.89
55066;BME280;40964;42.114;24.220;2023-03-15T04:20:41;96788.03;;;2.85;71.67
55066;BME280;40964;42.114;24.220;2023-03-15T04:23:19;96786.25;;;2.86;71.84
55066;BME280;40964;42.114;24.220;2023-03-15T04:25:49;96776.50;;;2.88;71.98
55066;BME280;40964;42.114;24.220;2023-03-15T04:28:15;96782.69;;;2.94;71.34
55066;BME280;40964;42.114;24.220;2023-03-15T04:30:41;96776.81;;;2.78;72.30
55066;BME280;40964;42.114;24.220;2023-03-15T04:33:09;96789.47;;;2.88;72.50
55066;BME280;40964;42.114;24.220;2023-03-15T04:35:36;96789.38;;;2.75;73.38
55066;BME280;40964;42.114;24.220;2023-03-15T04:38:03;96792.78;;;2.75;73.33
55066;BME280;40964;42.114;24.220;2023-03-15T04:40:30;96800.78;;;2.74;73.65
55066;BME280;40964;42.114;24.220;2023-03-15T04:43:17;96810.16;;;2.75;74.00
55066;BME280;40964;42.114;24.220;2023-03-15T04:46:01;96819.78;;;2.81;73.42
55066;BME280;40964;42.114;24.220;2023-03-15T04:48:27;96810.16;;;2.75;73.89
55066;BME280;40964;42.114;24.220;2023-03-15T04:50:52;96807.34;;;2.70;74.08
55066;BME280;40964;42.114;24.220;2023-03-15T04:53:17;96810.75;;;2.42;74.14
55066;BME280;40964;42.114;24.220;2023-03-15T04:55:43;96789.63;;;2.45;74.12
55066;BME280;40964;42.114;24.220;2023-03-15T04:58:08;96802.47;;;2.60;74.08
55066;BME280;40964;42.114;24.220;2023-03-15T05:00:34;96795.03;;;2.50;74.21
55066;BME280;40964;42.114;24.220;2023-03-15T05:02:59;96813.63;;;2.54;74.25
55066;BME280;40964;42.114;24.220;2023-03-15T05:05:25;96810.84;;;2.55;74.37
55066;BME280;40964;42.114;24.220;2023-03-15T05:07:50;96796.31;;;2.61;74.82
55066;BME280;40964;42.114;24.220;2023-03-15T05:10:16;96812.53;;;2.70;73.35
55066;BME280;40964;42.114;24.220;2023-03-15T05:12:41;96807.97;;;2.78;73.57
55066;BME280;40964;42.114;24.220;2023-03-15T05:15:07;96810.41;;;2.87;73.29
55066;BME280;40964;42.114;24.220;2023-03-15T05:17:33;96823.47;;;3.00;72.65
55066;BME280;40964;42.114;24.220;2023-03-15T05:19:59;96801.47;;;2.89;73.11
55066;BME280;40964;42.114;24.220;2023-03-15T05:22:35;96809.91;;;3.04;73.55
55066;BME280;40964;42.114;24.220;2023-03-15T05:25:00;96793.50;;;2.97;72.74
55066;BME280;40964;42.114;24.220;2023-03-15T05:27:25;96804.78;;;3.18;72.58
55066;BME280;40964;42.114;24.220;2023-03-15T05:29:52;96804.03;;;3.30;71.30
55066;BME280;40964;42.114;24.220;2023-03-15T05:32:18;96807.44;;;3.37;70.68
55066;BME280;40964;42.114;24.220;2023-03-15T05:34:43;96793.88;;;3.42;71.76
55066;BME280;40964;42.114;24.220;2023-03-15T05:37:08;96802.06;;;3.46;72.13
55066;BME280;40964;42.114;24.220;2023-03-15T05:39:34;96803.69;;;3.53;71.68
55066;BME280;40964;42.114;24.220;2023-03-15T05:42:00;96802.16;;;3.72;72.36
55066;BME280;40964;42.114;24.220;2023-03-15T05:44:26;96809.75;;;3.74;72.72
55066;BME280;40964;42.114;24.220;2023-03-15T05:46:51;96801.34;;;3.72;73.66
55066;BME280;40964;42.114;24.220;2023-03-15T05:49:17;96801.78;;;3.88;73.77
55066;BME280;40964;42.114;24.220;2023-03-15T05:51:42;96788.56;;;4.03;73.15
55066;BME280;40964;42.114;24.220;2023-03-15T05:54:08;96797.38;;;4.22;72.17
55066;BME280;40964;42.114;24.220;2023-03-15T05:56:33;96787.59;;;4.24;70.12
55066;BME280;40964;42.114;24.220;2023-03-15T05:58:59;96793.16;;;4.47;68.45
55066;BME280;40964;42.114;24.220;2023-03-15T06:01:27;96785.75;;;4.11;68.27
55066;BME280;40964;42.114;24.220;2023-03-15T06:03:52;96804.19;;;3.96;69.45
55066;BME280;40964;42.114;24.220;2023-03-15T06:06:18;96794.78;;;3.95;70.61
55066;BME280;40964;42.114;24.220;2023-03-15T06:08:43;96797.38;;;4.02;72.42
55066;BME280;40964;42.114;24.220;2023-03-15T06:11:08;96794.56;;;3.90;70.73
55066;BME280;40964;42.114;24.220;2023-03-15T06:13:34;96796.19;;;4.05;70.14
55066;BME280;40964;42.114;24.220;2023-03-15T06:15:59;96804.19;;;3.96;68.72
55066;BME280;40964;42.114;24.220;2023-03-15T06:18:25;96802.38;;;4.10;69.75
55066;BME280;40964;42.114;24.220;2023-03-15T06:20:50;96799.00;;;4.23;68.87
55066;BME280;40964;42.114;24.220;2023-03-15T06:23:15;96798.38;;;4.41;68.91
55066;BME280;40964;42.114;24.220;2023-03-15T06:25:41;96795.75;;;4.61;68.51
55066;BME280;40964;42.114;24.220;2023-03-15T06:28:06;96789.34;;;4.63;68.22
55066;BME280;40964;42.114;24.220;2023-03-15T06:30:32;96797.50;;;4.80;67.10
55066;BME280;40964;42.114;24.220;2023-03-15T06:32:57;96781.13;;;4.40;67.60
55066;BME280;40964;42.114;24.220;2023-03-15T06:35:23;96801.56;;;4.36;69.01
55066;BME280;40964;42.114;24.220;2023-03-15T06:37:48;96805.56;;;4.45;69.41
55066;BME280;40964;42.114;24.220;2023-03-15T06:40:14;96792.94;;;4.49;69.59
55066;BME280;40964;42.114;24.220;2023-03-15T06:42:40;96798.94;;;4.56;70.48
55066;BME280;40964;42.114;24.220;2023-03-15T06:45:07;96814.94;;;4.73;69.76
55066;BME280;40964;42.114;24.220;2023-03-15T06:47:33;96792.50;;;4.78;69.23
55066;BME280;40964;42.114;24.220;2023-03-15T06:49:58;96793.69;;;4.82;67.75
55066;BME280;40964;42.114;24.220;2023-03-15T06:52:24;96798.03;;;5.02;68.01
55066;BME280;40964;42.114;24.220;2023-03-15T06:54:50;96801.56;;;5.21;66.93
55066;BME280;40964;42.114;24.220;2023-03-15T06:57:15;96800.75;;;5.27;65.34
55066;BME280;40964;42.114;24.220;2023-03-15T06:59:40;96808.16;;;5.30;66.04
55066;BME280;40964;42.114;24.220;2023-03-15T07:02:12;96805.19;;;5.20;66.39
55066;BME280;40964;42.114;24.220;2023-03-15T07:04:38;96801.63;;;5.07;67.06
55066;BME280;40964;42.114;24.220;2023-03-15T07:07:03;96803.94;;;5.35;66.33
55066;BME280;40964;42.114;24.220;2023-03-15T07:09:29;96801.22;;;5.55;64.92
55066;BME280;40964;42.114;24.220;2023-03-15T07:11:55;96780.22;;;5.50;65.23
55066;BME280;40964;42.114;24.220;2023-03-15T07:14:39;96797.66;;;5.50;64.69
55066;BME280;40964;42.114;24.220;2023-03-15T07:17:23;96791.41;;;5.57;64.68
55066;BME280;40964;42.114;24.220;2023-03-15T07:19:49;96805.19;;;5.64;64.45
55066;BME280;40964;42.114;24.220;2023-03-15T07:22:16;96813.09;;;5.83;65.03
55066;BME280;40964;42.114;24.220;2023-03-15T07:24:41;96800.72;;;5.78;64.17
55066;BME280;40964;42.114;24.220;2023-03-15T07:27:11;96790.38;;;5.90;65.97
55066;BME280;40964;42.114;24.220;2023-03-15T07:29:36;96751.59;;;6.00;63.24
55066;BME280;40964;42.114;24.220;2023-03-15T07:32:03;96778.06;;;6.29;63.01
55066;BME280;40964;42.114;24.220;2023-03-15T07:34:29;96780.22;;;6.38;62.13
55066;BME280;40964;42.114;24.220;2023-03-15T07:36:54;96792.13;;;6.28;61.99
55066;BME280;40964;42.114;24.220;2023-03-15T07:39:20;96769.47;;;6.46;61.50
55066;BME280;40964;42.114;24.220;2023-03-15T07:41:45;96767.31;;;6.43;62.41
55066;BME280;40964;42.114;24.220;2023-03-15T07:44:11;96769.03;;;6.74;62.33
55066;BME280;40964;42.114;24.220;2023-03-15T07:46:36;96767.72;;;6.65;62.74
55066;BME280;40964;42.114;24.220;2023-03-15T07:49:02;96759.28;;;6.63;63.29
55066;BME280;40964;42.114;24.220;2023-03-15T07:51:28;96772.78;;;6.60;64.60
55066;BME280;40964;42.114;24.220;2023-03-15T07:53:53;96756.81;;;6.50;65.31
55066;BME280;40964;42.114;24.220;2023-03-15T07:56:18;96751.44;;;6.63;64.93
55066;BME280;40964;42.114;24.220;2023-03-15T07:58:44;96748.25;;;6.98;64.63
55066;BME280;40964;42.114;24.220;2023-03-15T08:01:09;96752.16;;;7.07;63.94
55066;BME280;40964;42.114;24.220;2023-03-15T08:03:35;96748.22;;;7.16;62.97
55066;BME280;40964;42.114;24.220;2023-03-15T08:06:00;96754.19;;;7.05;63.54
55066;BME280;40964;42.114;24.220;2023-03-15T08:08:26;96725.88;;;7.02;64.18
55066;BME280;40964;42.114;24.220;2023-03-15T08:10:51;96739.72;;;7.21;63.28
55066;BME280;40964;42.114;24.220;2023-03-15T08:13:17;96747.88;;;7.13;63.23
55066;BME280;40964;42.114;24.220;2023-03-15T08:15:44;96755.94;;;7.11;62.97
55066;BME280;40964;42.114;24.220;2023-03-15T08:18:11;96744.25;;;6.95;63.58
55066;BME280;40964;42.114;24.220;2023-03-15T08:20:36;96746.91;;;7.25;66.02
55066;BME280;40964;42.114;24.220;2023-03-15T08:23:02;96756.03;;;7.34;63.58
55066;BME280;40964;42.114;24.220;2023-03-15T08:25:28;96735.56;;;7.31;64.12
55066;BME280;40964;42.114;24.220;2023-03-15T08:27:53;96749.75;;;7.54;64.54
55066;BME280;40964;42.114;24.220;2023-03-15T08:30:19;96746.06;;;7.73;64.36
55066;BME280;40964;42.114;24.220;2023-03-15T08:32:47;96746.59;;;7.63;63.86
55066;BME280;40964;42.114;24.220;2023-03-15T08:35:14;96751.03;;;7.63;64.44
55066;BME280;40964;42.114;24.220;2023-03-15T08:37:40;96731.53;;;7.47;66.11
55066;BME280;40964;42.114;24.220;2023-03-15T08:40:07;96745.22;;;7.31;66.05
55066;BME280;40964;42.114;24.220;2023-03-15T08:42:36;96740.03;;;7.43;65.66
55066;BME280;40964;42.114;24.220;2023-03-15T08:45:06;96732.66;;;7.39;64.12
55066;BME280;40964;42.114;24.220;2023-03-15T08:47:36;96722.88;;;7.17;66.16
55066;BME280;40964;42.114;24.220;2023-03-15T08:50:07;96731.59;;;7.29;65.73
55066;BME280;40964;42.114;24.220;2023-03-15T08:52:53;96726.25;;;7.35;66.16
55066;BME280;40964;42.114;24.220;2023-03-15T08:55:37;96734.63;;;7.56;64.62
55066;BME280;40964;42.114;24.220;2023-03-15T08:58:03;96723.75;;;7.71;64.51
55066;BME280;40964;42.114;24.220;2023-03-15T09:00:29;96713.22;;;8.01;64.37
55066;BME280;40964;42.114;24.220;2023-03-15T09:02:55;96714.69;;;8.32;65.60
55066;BME280;40964;42.114;24.220;2023-03-15T09:05:23;96706.97;;;8.48;60.38
55066;BME280;40964;42.114;24.220;2023-03-15T09:07:49;96700.47;;;8.51;59.45
55066;BME280;40964;42.114;24.220;2023-03-15T09:10:17;96711.31;;;8.43;60.95
55066;BME280;40964;42.114;24.220;2023-03-15T09:12:49;96704.06;;;8.85;61.36
55066;BME280;40964;42.114;24.220;2023-03-15T09:15:15;96707.50;;;9.14;58.98
55066;BME280;40964;42.114;24.220;2023-03-15T09:17:41;96699.75;;;8.79;59.11
55066;BME280;40964;42.114;24.220;2023-03-15T09:20:10;96699.22;;;8.65;58.63
55066;BME280;40964;42.114;24.220;2023-03-15T09:22:40;96697.19;;;8.96;59.08
55066;BME280;40964;42.114;24.220;2023-03-15T09:25:06;96695.00;;;9.04;59.77
55066;BME280;40964;42.114;24.220;2023-03-15T09:27:32;96701.34;;;8.80;60.07
55066;BME280;40964;42.114;24.220;2023-03-15T09:29:58;96696.59;;;8.65;61.07
55066;BME280;40964;42.114;24.220;2023-03-15T09:32:23;96689.56;;;8.94;59.54
55066;BME280;40964;42.114;24.220;2023-03-15T09:34:49;96693.63;;;8.73;58.10
55066;BME280;40964;42.114;24.220;2023-03-15T09:37:15;96699.94;;;8.89;58.63
55066;BME280;40964;42.114;24.220;2023-03-15T09:39:40;96692.19;;;9.23;58.37
55066;BME280;40964;42.114;24.220;2023-03-15T09:42:21;96683.56;;;8.70;57.39
55066;BME280;40964;42.114;24.220;2023-03-15T09:44:57;96692.34;;;8.76;58.75
55066;BME280;40964;42.114;24.220;2023-03-15T09:48:15;96686.34;;;9.04;58.07
55066;BME280;40964;42.114;24.220;2023-03-15T09:50:51;96687.66;;;9.18;58.22
55066;BME280;40964;42.114;24.220;2023-03-15T09:56:02;96705.59;;;9.09;58.18
55066;BME280;40964;42.114;24.220;2023-03-15T09:58:29;96704.81;;;9.09;59.48
55066;BME280;40964;42.114;24.220;2023-03-15T10:01:07;96703.44;;;9.06;57.86
55066;BME280;40964;42.114;24.220;2023-03-15T10:03:45;96703.66;;;9.33;58.67
55066;BME280;40964;42.114;24.220;2023-03-15T10:06:17;96689.53;;;9.06;59.11
55066;BME280;40964;42.114;24.220;2023-03-15T10:17:11;96696.72;;;10.06;57.22
55066;BME280;40964;42.114;24.220;2023-03-15T10:19:47;96687.84;;;9.74;58.27
55066;BME280;40964;42.114;24.220;2023-03-15T10:29:46;96656.78;;;10.60;55.11
55066;BME280;40964;42.114;24.220;2023-03-15T10:32:18;96666.41;;;10.71;52.83
55066;BME280;40964;42.114;24.220;2023-03-15T10:34:51;96664.97;;;11.07;52.72
55066;BME280;40964;42.114;24.220;2023-03-15T10:37:18;96658.44;;;10.88;51.04
55066;BME280;40964;42.114;24.220;2023-03-15T10:39:48;96648.63;;;10.39;52.47
55066;BME280;40964;42.114;24.220;2023-03-15T10:42:30;96649.94;;;10.37;53.69
55066;BME280;40964;42.114;24.220;2023-03-15T10:44:57;96658.47;;;9.93;53.15
55066;BME280;40964;42.114;24.220;2023-03-15T10:47:26;96642.84;;;10.20;54.09
55066;BME280;40964;42.114;24.220;2023-03-15T10:49:58;96626.59;;;10.23;53.65
55066;BME280;40964;42.114;24.220;2023-03-15T10:52:34;96630.44;;;10.55;54.08
55066;BME280;40964;42.114;24.220;2023-03-15T10:55:14;96627.84;;;10.60;54.18
55066;BME280;40964;42.114;24.220;2023-03-15T10:57:52;96628.13;;;10.19;54.11
55066;BME280;40964;42.114;24.220;2023-03-15T11:00:33;96633.41;;;10.41;53.94
55066;BME280;40964;42.114;24.220;2023-03-15T11:03:15;96633.44;;;10.63;52.91
55066;BME280;40964;42.114;24.220;2023-03-15T11:05:44;96638.31;;;10.76;52.81
55066;BME280;40964;42.114;24.220;2023-03-15T11:08:18;96631.56;;;10.86;52.00
55066;BME280;40964;42.114;24.220;2023-03-15T11:10:46;96632.19;;;10.93;53.02
55066;BME280;40964;42.114;24.220;2023-03-15T11:21:04;96617.22;;;10.28;52.18
55066;BME280;40964;42.114;24.220;2023-03-15T11:23:34;96630.69;;;10.53;52.56
55066;BME280;40964;42.114;24.220;2023-03-15T11:26:01;96620.50;;;10.40;52.26
55066;BME280;40964;42.114;24.220;2023-03-15T11:28:30;96626.41;;;10.47;52.41
55066;BME280;40964;42.114;24.220;2023-03-15T11:31:00;96624.06;;;10.50;52.42
55066;BME280;40964;42.114;24.220;2023-03-15T11:36:29;96610.09;;;10.45;53.03
55066;BME280;40964;42.114;24.220;2023-03-15T11:38:58;96603.59;;;10.31;53.50
55066;BME280;40964;42.114;24.220;2023-03-15T11:41:49;96607.19;;;10.46;52.98
55066;BME280;40964;42.114;24.220;2023-03-15T11:44:35;96594.78;;;10.64;53.29
55066;BME280;40964;42.114;24.220;2023-03-15T11:47:41;96594.50;;;10.87;53.10
55066;BME280;40964;42.114;24.220;2023-03-15T11:50:12;96593.84;;;10.97;53.09
55066;BME280;40964;42.114;24.220;2023-03-15T11:52:39;96598.09;;;11.03;51.97
55066;BME280;40964;42.114;24.220;2023-03-15T11:55:06;96598.44;;;11.12;53.60
55066;BME280;40964;42.114;24.220;2023-03-15T11:57:40;96583.31;;;11.29;52.98
55066;BME280;40964;42.114;24.220;2023-03-15T12:02:55;96587.06;;;11.33;50.65
55066;BME280;40964;42.114;24.220;2023-03-15T12:05:50;96583.00;;;11.20;51.54
55066;BME280;40964;42.114;24.220;2023-03-15T12:10:59;96581.22;;;11.26;51.91
55066;BME280;40964;42.114;24.220;2023-03-15T12:13:30;96581.66;;;11.18;51.17
55066;BME280;40964;42.114;24.220;2023-03-15T12:15:56;96588.78;;;11.22;53.63
55066;BME280;40964;42.114;24.220;2023-03-15T12:18:45;96581.59;;;11.13;52.51
55066;BME280;40964;42.114;24.220;2023-03-15T12:21:13;96572.19;;;11.17;52.00
55066;BME280;40964;42.114;24.220;2023-03-15T12:23:43;96572.31;;;11.05;52.20
55066;BME280;40964;42.114;24.220;2023-03-15T12:31:25;96570.16;;;11.24;51.87
55066;BME280;40964;42.114;24.220;2023-03-15T12:33:53;96557.78;;;11.24;51.66
55066;BME280;40964;42.114;24.220;2023-03-15T12:36:35;96564.66;;;10.98;52.16
55066;BME280;40964;42.114;24.220;2023-03-15T12:41:49;96552.97;;;10.40;53.74
55066;BME280;40964;42.114;24.220;2023-03-15T12:46:58;96545.97;;;11.00;53.32
55066;BME280;40964;42.114;24.220;2023-03-15T12:51:53;96540.75;;;11.37;53.17
55066;BME280;40964;42.114;24.220;2023-03-15T12:54:21;96545.50;;;11.40;52.33
55066;BME280;40964;42.114;24.220;2023-03-15T12:56:51;96531.53;;;11.34;52.18
55066;BME280;40964;42.114;24.220;2023-03-15T12:59:30;96539.56;;;11.55;51.21
55066;BME280;40964;42.114;24.220;2023-03-15T13:01:58;96536.25;;;11.70;50.95
55066;BME280;40964;42.114;24.220;2023-03-15T13:04:26;96534.59;;;11.96;50.96
55066;BME280;40964;42.114;24.220;2023-03-15T13:12:22;96529.56;;;11.52;49.74
55066;BME280;40964;42.114;24.220;2023-03-15T13:17:38;96512.25;;;12.08;49.02
55066;BME280;40964;42.114;24.220;2023-03-15T13:28:35;96522.19;;;12.59;47.95
55066;BME280;40964;42.114;24.220;2023-03-15T13:31:12;96516.66;;;12.75;47.57
55066;BME280;40964;42.114;24.220;2023-03-15T13:33:41;96483.13;;;12.66;47.40
55066;BME280;40964;42.114;24.220;2023-03-15T13:36:16;96525.38;;;12.81;46.87
55066;BME280;40964;42.114;24.220;2023-03-15T13:38:44;96521.47;;;13.04;47.06
55066;BME280;40964;42.114;24.220;2023-03-15T13:41:26;96513.81;;;13.18;46.54
55066;BME280;40964;42.114;24.220;2023-03-15T13:43:54;96515.16;;;13.41;45.50
55066;BME280;40964;42.114;24.220;2023-03-15T13:46:22;96510.88;;;13.65;45.58
55066;BME280;40964;42.114;24.220;2023-03-15T13:48:49;96501.16;;;13.40;45.17
55066;BME280;40964;42.114;24.220;2023-03-15T13:51:22;96498.19;;;13.72;45.29
55066;BME280;40964;42.114;24.220;2023-03-15T13:53:51;96495.31;;;13.53;43.86
55066;BME280;40964;42.114;24.220;2023-03-15T13:56:30;96500.63;;;13.58;44.17
55066;BME280;40964;42.114;24.220;2023-03-15T13:58:56;96485.84;;;13.27;44.72
55066;BME280;40964;42.114;24.220;2023-03-15T14:01:23;96486.34;;;12.93;45.04
55066;BME280;40964;42.114;24.220;2023-03-15T14:04:00;96484.72;;;12.52;46.14
55066;BME280;40964;42.114;24.220;2023-03-15T14:06:29;96488.41;;;12.56;46.43
55066;BME280;40964;42.114;24.220;2023-03-15T14:09:03;96497.66;;;12.63;46.00
55066;BME280;40964;42.114;24.220;2023-03-15T14:11:38;96479.22;;;12.68;45.72
55066;BME280;40964;42.114;24.220;2023-03-15T14:14:27;96476.81;;;12.72;45.77
55066;BME280;40964;42.114;24.220;2023-03-15T14:16:56;96482.06;;;12.41;46.93
55066;BME280;40964;42.114;24.220;2023-03-15T14:19:33;96477.44;;;12.01;46.99
55066;BME280;40964;42.114;24.220;2023-03-15T14:22:03;96485.09;;;12.08;47.64
55066;BME280;40964;42.114;24.220;2023-03-15T14:24:38;96484.75;;;11.94;47.53